x

9435380 - South Beach, Or (sbeo3) Weather Station

1:54pm - Tue 16th Oct 2018 All times are PDT. -7 hours from GMT.

  • Wind
    1mph, 2mph gusts
  • Sea Temp 52°f
  • Air Temp 72°f
  • Sea Pressure 1021mb
  • 9435380 - South Beach, Or
  • 9435380 - South Beach, Or

More Historic Weather Station data

Upgrade to MSW Pro to gain access to the past 30 days of data for over 8000 Wavebouys and Weather Stations around the globe.

Join

Comparision Forecast

View Surf forecast
   
Tue 10/16 1:54pm 1 2 mph 1021mb 52f 72f
1:48pm  -  3 mph - - -
1:42pm 3 5 mph 1021.2mb 52f 71f
1:36pm 5 6 mph 1021.3mb 52f 69f
1:30pm 6 8 mph 1021.3mb 52f 68f
1:24pm 8 10 mph 1021.5mb 52f 67f
1:18pm 7 9 mph 1021.5mb 52f 66f
1:12pm 2 7 mph 1021.7mb 52f 72f
1:06pm 6 7 mph 1021.7mb 52f 74f
1:00pm 7 9 mph 1021.9mb 52f 74f
12:54pm 8 10 mph 1022mb 52f 74f
12:48pm 8 9 mph - - -
12:42pm 9 10 mph 1022.1mb 51f 73f
12:36pm 9 11 mph 1022.1mb 51f 73f
12:30pm 9 11 mph 1022.1mb 51f 72f
12:24pm 10 11 mph 1022.2mb 51f 72f
12:18pm 10 14 mph 1022.2mb 51f 72f
12:12pm 10 13 mph 1022.3mb 51f 72f
12:06pm 13 15 mph 1022.3mb 51f 71f
12:00pm 14 15 mph 1022.4mb 51f 71f
11:54am 14 17 mph 1022.4mb 51f 70f
11:48am 14 16 mph 1022.4mb 52f 70f
11:42am 14 17 mph 1022.4mb 52f 70f
11:36am 15 17 mph 1022.4mb 52f 69f
11:30am 15 17 mph 1022.4mb 52f 68f
11:24am 16 20 mph 1022.4mb 52f 68f
11:18am 16 18 mph 1022.4mb 52f 68f
11:12am 17 20 mph 1022.4mb 52f 67f
11:06am 16 18 mph 1022.4mb 52f 67f
11:00am 14 17 mph 1022.4mb 52f 67f
10:54am 14 17 mph 1022.3mb 52f 66f
10:48am 15 17 mph 1022.3mb 52f 66f
10:42am 14 18 mph 1022.3mb 52f 66f
10:36am 16 20 mph 1022.3mb 52f 66f
10:30am 16 17 mph 1022.4mb 52f 65f
10:24am 16 18 mph 1022.4mb 52f 65f
10:18am 14 16 mph 1022.5mb - -
10:12am 14 16 mph 1022.5mb 52f 64f
10:06am 14 17 mph 1022.5mb 52f 64f
10:00am 14 16 mph 1022.5mb 52f 64f
9:18am 13 16 mph 1022.5mb 52f 62f
9:12am 13 16 mph 1022.5mb 52f 61f
9:06am 14 18 mph 1022.5mb 52f 61f
9:00am 15 17 mph 1022.4mb 52f 61f
8:54am 14 16 mph 1022.4mb 52f 61f
8:48am 14 17 mph 1022.4mb 52f 60f
8:42am 14 16 mph 1022.4mb 52f 60f
8:36am 15 17 mph 1022.4mb 52f 60f
8:30am 15 17 mph 1022.3mb 52f 60f
8:24am 15 17 mph 1022.2mb 52f 59f
8:18am 15 18 mph 1022.2mb 52f 59f
8:12am 15 16 mph 1022.1mb 52f 59f
8:06am 16 17 mph 1022mb 52f 60f
8:00am 15 16 mph 1022mb 52f 59f
7:54am 14 15 mph 1022mb 52f 59f
7:48am 14 15 mph 1022mb 52f 59f
7:42am 13 14 mph 1022.1mb 52f 59f
7:36am 14 15 mph 1022.1mb 52f 59f
7:30am 14 16 mph 1022.1mb 52f 59f
7:24am 16 20 mph 1022mb 52f 60f
7:18am 17 18 mph 1021.9mb 52f 60f
7:12am 17 20 mph 1021.9mb 52f 60f
7:06am 16 18 mph 1021.9mb 52f 59f
7:00am 17 18 mph 1021.9mb 52f 59f
6:54am 15 18 mph 1022mb 52f 59f
6:48am 17 18 mph 1022mb - -
6:42am 16 18 mph 1021.9mb 52f 59f
6:36am 17 21 mph 1021.9mb 52f 59f
6:30am 18 20 mph 1021.9mb 52f 59f
6:24am 17 20 mph 1021.9mb 52f 59f
6:18am 17 18 mph 1021.9mb 52f 59f
6:12am 17 18 mph 1022mb 52f 59f
6:06am 16 17 mph 1022.1mb 52f 59f
6:00am 14 15 mph 1022.1mb 52f 59f
5:48am 9 10 mph 1022.1mb 52f 56f
5:42am 9 11 mph 1022.2mb 52f 55f
5:36am 8 10 mph 1022.2mb 52f 55f
5:30am 6 8 mph 1022.2mb 52f 54f
5:24am 7 10 mph 1022.2mb 52f 56f
5:18am 10 13 mph 1022.2mb 52f -
5:12am 11 13 mph 1022.1mb 52f 60f
5:06am 11 14 mph 1022.1mb 52f 59f
5:00am 10 13 mph 1022.1mb 52f 59f
4:54am 10 13 mph 1022.1mb 52f 59f
4:48am 11 14 mph 1022mb 53f 59f
4:42am 11 13 mph 1022mb 53f 60f
4:36am 13 14 mph 1022.1mb 53f 60f
4:30am 13 14 mph 1022.1mb 53f 59f
4:24am 9 13 mph 1022.1mb 53f 56f
4:18am 11 13 mph 1022.1mb 53f 60f
4:12am 10 11 mph 1022.1mb 53f 58f
4:06am 8 9 mph 1022.2mb 53f 55f
4:00am 7 8 mph 1022.2mb 53f 55f
3:54am 7 8 mph 1022.3mb 53f 53f
3:48am 7 8 mph 1022.3mb 53f -
3:42am 6 8 mph 1022.3mb 53f 53f
3:36am 6 8 mph 1022.3mb 53f 53f
3:30am 7 8 mph 1022.3mb 53f 53f
3:24am 7 8 mph 1022.4mb 53f 52f
3:18am 7 10 mph 1022.4mb 53f 53f
3:12am 9 10 mph 1022.4mb 53f 52f
3:06am 9 10 mph 1022.5mb 53f 53f
3:00am 5 8 mph 1022.5mb 54f 53f
2:54am 8 9 mph 1022.4mb 54f 53f
2:48am 7 8 mph 1022.4mb 54f 53f
2:42am 8 9 mph 1022.4mb 54f 52f
2:36am 8 8 mph 1022.5mb 54f 52f
2:30am 7 8 mph 1022.5mb 54f 52f
2:24am 7 8 mph 1022.5mb 54f 52f
2:18am 7 8 mph 1022.5mb 54f 54f
2:12am 7 8 mph 1022.5mb 54f 54f
2:06am 7 8 mph 1022.4mb 54f 55f
2:00am 7 8 mph 1022.4mb 54f 53f
1:54am 7 8 mph 1022.4mb 54f 53f
1:48am 7 8 mph 1022.4mb 54f -
1:42am 8 8 mph 1022.4mb 54f 54f
1:36am 8 8 mph 1022.4mb 54f 54f
1:30am 6 8 mph 1022.4mb 54f 53f
1:24am 6 8 mph 1022.4mb 54f 54f
1:18am 8 8 mph 1022.4mb 54f 53f
1:12am 8 9 mph 1022.3mb 54f 53f
1:06am 9 10 mph 1022.3mb 54f 54f
1:00am 9 9 mph 1022.2mb 53f 52f
12:18am 8 9 mph 1022.1mb 53f -
12:12am 6 8 mph 1022.1mb 53f 51f
12:06am 7 8 mph 1022.1mb 53f 51f
12:00am 7 9 mph 1022.1mb 53f 51f
Mon 10/15 11:54pm 7 8 mph 1022.1mb 53f 51f
11:48pm 7 8 mph 1022.2mb 53f 51f
11:42pm 5 6 mph 1022.2mb 53f 52f
11:36pm 6 6 mph 1022.2mb 53f 52f
11:30pm 6 7 mph 1022.2mb 53f 52f
11:24pm 6 6 mph 1022.3mb 53f 52f
11:18pm 6 7 mph 1022.2mb 52f 52f
11:12pm 6 6 mph 1022.2mb 52f 52f
11:06pm 5 7 mph 1022.2mb 52f 52f
11:00pm 6 7 mph 1022.2mb 52f 53f
10:54pm 5 7 mph 1022.2mb 52f 53f
10:48pm 6 7 mph - - -
10:42pm 6 6 mph 1022.1mb 52f 53f
10:36pm 6 7 mph 1022.1mb 52f 53f
10:30pm 7 7 mph 1022.1mb 52f 54f
10:24pm 3 6 mph 1022.1mb 52f 54f
10:18pm 5 6 mph 1022mb 52f 54f
10:12pm 6 7 mph 1022mb 52f 55f
10:06pm 6 6 mph 1021.9mb 52f 55f
10:00pm 6 7 mph 1021.9mb 52f 55f
9:54pm 5 6 mph 1021.9mb 52f 55f
9:48pm 5 6 mph 1021.8mb 52f 55f
9:42pm 2 5 mph 1021.8mb 52f 55f
9:36pm 6 7 mph 1021.8mb 52f 55f
9:30pm 7 8 mph 1021.8mb 52f 55f
9:24pm 8 8 mph 1021.8mb 52f 55f
9:18pm 7 9 mph 1021.9mb 52f 56f
9:12pm 6 7 mph 1021.9mb 52f 56f
9:06pm 5 6 mph 1021.9mb 52f 56f
9:00pm 6 6 mph 1021.9mb 52f 57f
8:54pm 6 7 mph 1021.9mb 52f 57f
8:48pm 5 7 mph 1021.8mb 52f 58f
8:42pm 7 9 mph 1021.8mb 52f 58f
8:36pm 7 9 mph 1021.8mb 52f 58f
8:30pm 9 9 mph 1021.7mb 52f 60f
8:24pm 8 10 mph 1021.7mb 52f 58f
8:18pm 9 10 mph 1021.7mb 53f 60f
8:12pm 9 10 mph 1021.7mb 52f 58f
8:06pm 9 10 mph 1021.7mb 52f 59f
8:00pm 8 8 mph 1021.7mb 52f 60f
7:54pm 8 9 mph 1021.6mb 52f 61f
7:48pm 8 8 mph - - -
7:42pm 8 8 mph 1021.6mb 51f 65f
7:36pm 7 8 mph 1021.6mb 51f 65f
7:30pm 7 8 mph 1021.6mb 51f 65f
7:24pm 7 8 mph 1021.5mb 51f 66f
7:18pm 6 7 mph 1021.5mb 51f -
7:12pm 6 8 mph 1021.5mb 51f 66f
7:06pm 7 8 mph 1021.5mb 51f 67f
7:00pm 6 8 mph 1021.4mb 51f 68f
6:48pm 6 8 mph 1021.4mb 51f 70f
6:42pm 6 7 mph 1021.5mb 51f 70f
6:36pm 7 8 mph 1021.5mb 51f 72f
6:30pm 7 8 mph 1021.4mb 51f 72f
6:24pm 6 8 mph 1021.4mb 51f 72f
6:18pm 7 8 mph 1021.3mb 51f 73f
6:12pm 7 8 mph 1021.2mb 51f 73f
6:06pm 7 8 mph 1021.3mb 51f 74f
6:00pm 7 8 mph 1021.3mb 51f 74f